sensor_id;sensor_type;location;lat;lon;timestamp;P1;durP1;ratioP1;P2;durP2;ratioP2
13051;SDS011;6592;47.484;9.726;2023-03-14T00:00:18;0.13;;;0.08;;
13051;SDS011;6592;47.484;9.726;2023-03-14T00:02:50;0.30;;;0.00;;
13051;SDS011;6592;47.484;9.726;2023-03-14T00:05:21;0.10;;;0.00;;
13051;SDS011;6592;47.484;9.726;2023-03-14T00:07:51;0.35;;;0.20;;
13051;SDS011;6592;47.484;9.726;2023-03-14T00:10:20;0.60;;;0.10;;
13051;SDS011;6592;47.484;9.726;2023-03-14T00:12:49;0.40;;;0.08;;
13051;SDS011;6592;47.484;9.726;2023-03-14T00:15:18;0.10;;;0.00;;
13051;SDS011;6592;47.484;9.726;2023-03-14T00:17:47;0.15;;;0.10;;
13051;SDS011;6592;47.484;9.726;2023-03-14T00:20:16;0.98;;;0.05;;
13051;SDS011;6592;47.484;9.726;2023-03-14T00:22:45;1.38;;;0.15;;
13051;SDS011;6592;47.484;9.726;2023-03-14T00:25:15;1.92;;;0.10;;
13051;SDS011;6592;47.484;9.726;2023-03-14T00:27:44;0.10;;;0.00;;
13051;SDS011;6592;47.484;9.726;2023-03-14T00:30:13;0.30;;;0.10;;
13051;SDS011;6592;47.484;9.726;2023-03-14T00:32:42;0.65;;;0.10;;
13051;SDS011;6592;47.484;9.726;2023-03-14T00:35:12;0.20;;;0.10;;
13051;SDS011;6592;47.484;9.726;2023-03-14T00:37:41;0.43;;;0.15;;
13051;SDS011;6592;47.484;9.726;2023-03-14T00:40:10;1.10;;;0.10;;
13051;SDS011;6592;47.484;9.726;2023-03-14T00:42:41;0.20;;;0.10;;
13051;SDS011;6592;47.484;9.726;2023-03-14T00:45:10;0.63;;;0.10;;
13051;SDS011;6592;47.484;9.726;2023-03-14T00:47:39;1.17;;;0.20;;
13051;SDS011;6592;47.484;9.726;2023-03-14T00:50:12;0.65;;;0.10;;
13051;SDS011;6592;47.484;9.726;2023-03-14T00:52:40;0.40;;;0.10;;
13051;SDS011;6592;47.484;9.726;2023-03-14T00:55:09;2.42;;;0.30;;
13051;SDS011;6592;47.484;9.726;2023-03-14T00:57:38;0.57;;;0.20;;
13051;SDS011;6592;47.484;9.726;2023-03-14T01:00:11;1.48;;;0.10;;
13051;SDS011;6592;47.484;9.726;2023-03-14T01:02:40;1.23;;;0.28;;
13051;SDS011;6592;47.484;9.726;2023-03-14T01:05:09;0.28;;;0.10;;
13051;SDS011;6592;47.484;9.726;2023-03-14T01:07:38;0.13;;;0.10;;
13051;SDS011;6592;47.484;9.726;2023-03-14T01:10:09;0.75;;;0.10;;
13051;SDS011;6592;47.484;9.726;2023-03-14T01:12:38;0.45;;;0.17;;
13051;SDS011;6592;47.484;9.726;2023-03-14T01:15:09;0.32;;;0.10;;
13051;SDS011;6592;47.484;9.726;2023-03-14T01:17:37;0.50;;;0.17;;
13051;SDS011;6592;47.484;9.726;2023-03-14T01:20:08;0.88;;;0.35;;
13051;SDS011;6592;47.484;9.726;2023-03-14T01:22:40;0.82;;;0.38;;
13051;SDS011;6592;47.484;9.726;2023-03-14T01:25:11;0.52;;;0.20;;
13051;SDS011;6592;47.484;9.726;2023-03-14T01:27:41;0.90;;;0.30;;
13051;SDS011;6592;47.484;9.726;2023-03-14T01:30:13;1.08;;;0.50;;
13051;SDS011;6592;47.484;9.726;2023-03-14T01:32:42;0.52;;;0.30;;
13051;SDS011;6592;47.484;9.726;2023-03-14T01:35:10;0.65;;;0.20;;
13051;SDS011;6592;47.484;9.726;2023-03-14T01:37:39;0.30;;;0.10;;
13051;SDS011;6592;47.484;9.726;2023-03-14T01:40:10;0.38;;;0.10;;
13051;SDS011;6592;47.484;9.726;2023-03-14T01:42:46;0.38;;;0.20;;
13051;SDS011;6592;47.484;9.726;2023-03-14T01:48:21;0.40;;;0.10;;
13051;SDS011;6592;47.484;9.726;2023-03-14T01:50:50;0.22;;;0.10;;
13051;SDS011;6592;47.484;9.726;2023-03-14T01:53:19;0.45;;;0.20;;
13051;SDS011;6592;47.484;9.726;2023-03-14T01:55:48;0.30;;;0.10;;
13051;SDS011;6592;47.484;9.726;2023-03-14T01:58:23;0.20;;;0.00;;
13051;SDS011;6592;47.484;9.726;2023-03-14T02:00:55;0.30;;;0.00;;
13051;SDS011;6592;47.484;9.726;2023-03-14T02:03:28;0.20;;;0.10;;
13051;SDS011;6592;47.484;9.726;2023-03-14T02:05:59;0.15;;;0.03;;
13051;SDS011;6592;47.484;9.726;2023-03-14T02:08:32;0.30;;;0.10;;
13051;SDS011;6592;47.484;9.726;2023-03-14T02:11:03;0.20;;;0.00;;
13051;SDS011;6592;47.484;9.726;2023-03-14T02:13:33;0.40;;;0.10;;
13051;SDS011;6592;47.484;9.726;2023-03-14T02:16:03;0.10;;;0.00;;
13051;SDS011;6592;47.484;9.726;2023-03-14T02:18:34;0.00;;;0.00;;
13051;SDS011;6592;47.484;9.726;2023-03-14T02:21:04;0.10;;;0.00;;
13051;SDS011;6592;47.484;9.726;2023-03-14T02:23:40;0.40;;;0.10;;
13051;SDS011;6592;47.484;9.726;2023-03-14T02:26:17;0.20;;;0.00;;
13051;SDS011;6592;47.484;9.726;2023-03-14T02:28:52;0.00;;;0.00;;
13051;SDS011;6592;47.484;9.726;2023-03-14T02:31:22;0.20;;;0.00;;
13051;SDS011;6592;47.484;9.726;2023-03-14T02:33:54;0.20;;;0.00;;
13051;SDS011;6592;47.484;9.726;2023-03-14T02:36:24;0.00;;;0.00;;
13051;SDS011;6592;47.484;9.726;2023-03-14T02:38:55;0.10;;;0.00;;
13051;SDS011;6592;47.484;9.726;2023-03-14T02:41:31;0.05;;;0.00;;
13051;SDS011;6592;47.484;9.726;2023-03-14T02:44:17;0.10;;;0.10;;
13051;SDS011;6592;47.484;9.726;2023-03-14T02:46:47;0.03;;;0.00;;
13051;SDS011;6592;47.484;9.726;2023-03-14T02:49:16;0.05;;;0.00;;
13051;SDS011;6592;47.484;9.726;2023-03-14T02:51:52;0.45;;;0.00;;
13051;SDS011;6592;47.484;9.726;2023-03-14T02:54:23;0.08;;;0.00;;
13051;SDS011;6592;47.484;9.726;2023-03-14T02:56:53;0.00;;;0.00;;
13051;SDS011;6592;47.484;9.726;2023-03-14T02:59:24;0.75;;;0.10;;
13051;SDS011;6592;47.484;9.726;2023-03-14T03:01:52;0.50;;;0.10;;
13051;SDS011;6592;47.484;9.726;2023-03-14T03:04:21;0.73;;;0.10;;
13051;SDS011;6592;47.484;9.726;2023-03-14T03:06:50;0.10;;;0.00;;
13051;SDS011;6592;47.484;9.726;2023-03-14T03:09:22;0.00;;;0.00;;
13051;SDS011;6592;47.484;9.726;2023-03-14T03:11:50;0.22;;;0.03;;
13051;SDS011;6592;47.484;9.726;2023-03-14T03:14:22;0.45;;;0.10;;
13051;SDS011;6592;47.484;9.726;2023-03-14T03:16:53;0.30;;;0.10;;
13051;SDS011;6592;47.484;9.726;2023-03-14T03:19:23;0.10;;;0.08;;
13051;SDS011;6592;47.484;9.726;2023-03-14T03:21:52;0.20;;;0.10;;
13051;SDS011;6592;47.484;9.726;2023-03-14T03:24:21;0.30;;;0.10;;
13051;SDS011;6592;47.484;9.726;2023-03-14T03:26:50;0.22;;;0.10;;
13051;SDS011;6592;47.484;9.726;2023-03-14T03:29:19;0.60;;;0.10;;
13051;SDS011;6592;47.484;9.726;2023-03-14T03:31:51;0.60;;;0.20;;
13051;SDS011;6592;47.484;9.726;2023-03-14T03:34:20;0.38;;;0.10;;
13051;SDS011;6592;47.484;9.726;2023-03-14T03:36:49;0.00;;;0.00;;
13051;SDS011;6592;47.484;9.726;2023-03-14T03:39:18;0.20;;;0.10;;
13051;SDS011;6592;47.484;9.726;2023-03-14T03:41:47;0.10;;;0.10;;
13051;SDS011;6592;47.484;9.726;2023-03-14T03:44:16;0.25;;;0.10;;
13051;SDS011;6592;47.484;9.726;2023-03-14T03:46:44;0.10;;;0.00;;
13051;SDS011;6592;47.484;9.726;2023-03-14T03:49:14;0.30;;;0.10;;
13051;SDS011;6592;47.484;9.726;2023-03-14T03:51:43;0.80;;;0.03;;
13051;SDS011;6592;47.484;9.726;2023-03-14T03:54:12;0.47;;;0.10;;
13051;SDS011;6592;47.484;9.726;2023-03-14T03:56:41;0.40;;;0.10;;
13051;SDS011;6592;47.484;9.726;2023-03-14T03:59:10;0.50;;;0.20;;
13051;SDS011;6592;47.484;9.726;2023-03-14T04:01:39;0.30;;;0.03;;
13051;SDS011;6592;47.484;9.726;2023-03-14T04:04:07;0.10;;;0.08;;
13051;SDS011;6592;47.484;9.726;2023-03-14T04:06:38;0.47;;;0.10;;
13051;SDS011;6592;47.484;9.726;2023-03-14T04:09:08;0.10;;;0.08;;
13051;SDS011;6592;47.484;9.726;2023-03-14T04:11:37;0.55;;;0.10;;
13051;SDS011;6592;47.484;9.726;2023-03-14T04:14:07;0.10;;;0.08;;
13051;SDS011;6592;47.484;9.726;2023-03-14T04:16:36;0.77;;;0.20;;
13051;SDS011;6592;47.484;9.726;2023-03-14T04:19:05;1.45;;;0.20;;
13051;SDS011;6592;47.484;9.726;2023-03-14T04:21:33;0.35;;;0.13;;
13051;SDS011;6592;47.484;9.726;2023-03-14T04:24:04;1.02;;;0.30;;
13051;SDS011;6592;47.484;9.726;2023-03-14T04:26:33;1.00;;;0.30;;
13051;SDS011;6592;47.484;9.726;2023-03-14T04:29:02;0.55;;;0.20;;
13051;SDS011;6592;47.484;9.726;2023-03-14T04:31:31;0.50;;;0.20;;
13051;SDS011;6592;47.484;9.726;2023-03-14T04:34:00;0.63;;;0.17;;
13051;SDS011;6592;47.484;9.726;2023-03-14T04:36:29;0.35;;;0.10;;
13051;SDS011;6592;47.484;9.726;2023-03-14T04:38:57;0.40;;;0.10;;
13051;SDS011;6592;47.484;9.726;2023-03-14T04:41:27;0.32;;;0.13;;
13051;SDS011;6592;47.484;9.726;2023-03-14T04:43:56;0.73;;;0.13;;
13051;SDS011;6592;47.484;9.726;2023-03-14T04:46:25;0.68;;;0.10;;
13051;SDS011;6592;47.484;9.726;2023-03-14T04:48:54;0.75;;;0.30;;
13051;SDS011;6592;47.484;9.726;2023-03-14T04:51:23;1.42;;;0.20;;
13051;SDS011;6592;47.484;9.726;2023-03-14T04:53:53;0.65;;;0.20;;
13051;SDS011;6592;47.484;9.726;2023-03-14T04:56:22;1.27;;;0.22;;
13051;SDS011;6592;47.484;9.726;2023-03-14T04:58:53;0.40;;;0.10;;
13051;SDS011;6592;47.484;9.726;2023-03-14T05:01:22;0.57;;;0.20;;
13051;SDS011;6592;47.484;9.726;2023-03-14T05:03:51;0.15;;;0.10;;
13051;SDS011;6592;47.484;9.726;2023-03-14T05:06:20;0.32;;;0.10;;
13051;SDS011;6592;47.484;9.726;2023-03-14T05:08:48;0.52;;;0.10;;
13051;SDS011;6592;47.484;9.726;2023-03-14T05:11:17;0.68;;;0.20;;
13051;SDS011;6592;47.484;9.726;2023-03-14T05:13:46;1.50;;;0.20;;
13051;SDS011;6592;47.484;9.726;2023-03-14T05:16:17;0.95;;;0.30;;
13051;SDS011;6592;47.484;9.726;2023-03-14T05:18:46;0.25;;;0.20;;
13051;SDS011;6592;47.484;9.726;2023-03-14T05:21:14;0.70;;;0.20;;
13051;SDS011;6592;47.484;9.726;2023-03-14T05:23:43;0.77;;;0.30;;
13051;SDS011;6592;47.484;9.726;2023-03-14T05:26:12;0.98;;;0.47;;
13051;SDS011;6592;47.484;9.726;2023-03-14T05:28:43;1.17;;;0.35;;
13051;SDS011;6592;47.484;9.726;2023-03-14T05:31:12;1.70;;;0.50;;
13051;SDS011;6592;47.484;9.726;2023-03-14T05:33:42;2.05;;;0.90;;
13051;SDS011;6592;47.484;9.726;2023-03-14T05:36:12;1.27;;;0.50;;
13051;SDS011;6592;47.484;9.726;2023-03-14T05:38:41;1.52;;;0.40;;
13051;SDS011;6592;47.484;9.726;2023-03-14T05:41:09;2.17;;;0.70;;
13051;SDS011;6592;47.484;9.726;2023-03-14T05:43:38;1.15;;;0.60;;
13051;SDS011;6592;47.484;9.726;2023-03-14T05:46:07;2.45;;;0.75;;
13051;SDS011;6592;47.484;9.726;2023-03-14T05:48:36;1.35;;;0.60;;
13051;SDS011;6592;47.484;9.726;2023-03-14T05:51:07;1.63;;;0.70;;
13051;SDS011;6592;47.484;9.726;2023-03-14T05:53:36;2.05;;;0.70;;
13051;SDS011;6592;47.484;9.726;2023-03-14T05:56:05;0.80;;;0.47;;
13051;SDS011;6592;47.484;9.726;2023-03-14T05:58:36;1.23;;;0.50;;
13051;SDS011;6592;47.484;9.726;2023-03-14T06:01:05;1.20;;;0.57;;
13051;SDS011;6592;47.484;9.726;2023-03-14T06:03:34;1.27;;;0.70;;
13051;SDS011;6592;47.484;9.726;2023-03-14T06:06:03;0.82;;;0.43;;
13051;SDS011;6592;47.484;9.726;2023-03-14T06:08:34;1.83;;;0.60;;
13051;SDS011;6592;47.484;9.726;2023-03-14T06:11:03;0.73;;;0.43;;
13051;SDS011;6592;47.484;9.726;2023-03-14T06:13:32;1.20;;;0.45;;
13051;SDS011;6592;47.484;9.726;2023-03-14T06:16:01;1.60;;;0.60;;
13051;SDS011;6592;47.484;9.726;2023-03-14T06:18:30;1.10;;;0.50;;
13051;SDS011;6592;47.484;9.726;2023-03-14T06:20:59;1.25;;;0.57;;
13051;SDS011;6592;47.484;9.726;2023-03-14T06:23:28;0.50;;;0.40;;
13051;SDS011;6592;47.484;9.726;2023-03-14T06:26:01;1.00;;;0.50;;
13051;SDS011;6592;47.484;9.726;2023-03-14T06:28:29;1.90;;;0.30;;
13051;SDS011;6592;47.484;9.726;2023-03-14T06:31:00;1.23;;;0.30;;
13051;SDS011;6592;47.484;9.726;2023-03-14T06:33:30;1.10;;;0.45;;
13051;SDS011;6592;47.484;9.726;2023-03-14T06:35:59;2.42;;;0.90;;
13051;SDS011;6592;47.484;9.726;2023-03-14T06:38:28;3.55;;;1.10;;
13051;SDS011;6592;47.484;9.726;2023-03-14T06:41:03;3.95;;;1.25;;
13051;SDS011;6592;47.484;9.726;2023-03-14T06:43:33;4.30;;;1.20;;
13051;SDS011;6592;47.484;9.726;2023-03-14T06:46:02;1.95;;;0.52;;
13051;SDS011;6592;47.484;9.726;2023-03-14T06:48:36;3.75;;;1.10;;
13051;SDS011;6592;47.484;9.726;2023-03-14T06:51:05;1.70;;;0.63;;
13051;SDS011;6592;47.484;9.726;2023-03-14T06:53:34;1.50;;;0.63;;
13051;SDS011;6592;47.484;9.726;2023-03-14T06:56:05;1.80;;;0.70;;
13051;SDS011;6592;47.484;9.726;2023-03-14T06:58:35;1.38;;;0.60;;
13051;SDS011;6592;47.484;9.726;2023-03-14T07:01:03;2.28;;;0.85;;
13051;SDS011;6592;47.484;9.726;2023-03-14T07:03:36;2.22;;;1.10;;
13051;SDS011;6592;47.484;9.726;2023-03-14T07:06:05;3.35;;;1.60;;
13051;SDS011;6592;47.484;9.726;2023-03-14T07:08:34;2.22;;;0.90;;
13051;SDS011;6592;47.484;9.726;2023-03-14T07:11:07;1.48;;;0.60;;
13051;SDS011;6592;47.484;9.726;2023-03-14T07:13:37;2.25;;;1.13;;
13051;SDS011;6592;47.484;9.726;2023-03-14T07:16:06;1.90;;;0.85;;
13051;SDS011;6592;47.484;9.726;2023-03-14T07:18:36;1.73;;;0.70;;
13051;SDS011;6592;47.484;9.726;2023-03-14T07:21:08;2.15;;;0.80;;
13051;SDS011;6592;47.484;9.726;2023-03-14T07:23:37;2.90;;;1.20;;
13051;SDS011;6592;47.484;9.726;2023-03-14T07:26:09;4.80;;;1.03;;
13051;SDS011;6592;47.484;9.726;2023-03-14T07:28:39;3.10;;;1.10;;
13051;SDS011;6592;47.484;9.726;2023-03-14T07:31:08;2.30;;;1.02;;
13051;SDS011;6592;47.484;9.726;2023-03-14T07:33:38;3.78;;;1.40;;
13051;SDS011;6592;47.484;9.726;2023-03-14T07:36:08;2.25;;;1.10;;
13051;SDS011;6592;47.484;9.726;2023-03-14T07:38:38;1.88;;;0.98;;
13051;SDS011;6592;47.484;9.726;2023-03-14T07:41:06;2.30;;;0.98;;
13051;SDS011;6592;47.484;9.726;2023-03-14T07:43:36;1.58;;;0.60;;
13051;SDS011;6592;47.484;9.726;2023-03-14T07:46:05;1.65;;;0.50;;
13051;SDS011;6592;47.484;9.726;2023-03-14T07:48:34;1.90;;;0.73;;
13051;SDS011;6592;47.484;9.726;2023-03-14T07:51:03;1.05;;;0.40;;
13051;SDS011;6592;47.484;9.726;2023-03-14T07:53:32;1.05;;;0.52;;
13051;SDS011;6592;47.484;9.726;2023-03-14T07:56:01;3.00;;;0.52;;
13051;SDS011;6592;47.484;9.726;2023-03-14T07:58:32;1.02;;;0.43;;
13051;SDS011;6592;47.484;9.726;2023-03-14T08:01:01;1.77;;;0.70;;
13051;SDS011;6592;47.484;9.726;2023-03-14T08:03:30;1.60;;;0.60;;
13051;SDS011;6592;47.484;9.726;2023-03-14T08:06:00;1.73;;;0.60;;
13051;SDS011;6592;47.484;9.726;2023-03-14T08:08:29;1.05;;;0.30;;
13051;SDS011;6592;47.484;9.726;2023-03-14T08:11:01;0.82;;;0.30;;
13051;SDS011;6592;47.484;9.726;2023-03-14T08:13:37;0.32;;;0.20;;
13051;SDS011;6592;47.484;9.726;2023-03-14T08:16:06;1.30;;;0.35;;
13051;SDS011;6592;47.484;9.726;2023-03-14T08:18:36;1.10;;;0.40;;
13051;SDS011;6592;47.484;9.726;2023-03-14T08:21:04;1.00;;;0.40;;
13051;SDS011;6592;47.484;9.726;2023-03-14T08:23:33;1.55;;;0.50;;
13051;SDS011;6592;47.484;9.726;2023-03-14T08:26:05;1.40;;;0.40;;
13051;SDS011;6592;47.484;9.726;2023-03-14T08:28:34;3.42;;;0.35;;
13051;SDS011;6592;47.484;9.726;2023-03-14T08:31:05;3.10;;;0.90;;
13051;SDS011;6592;47.484;9.726;2023-03-14T08:33:35;0.80;;;0.35;;
13051;SDS011;6592;47.484;9.726;2023-03-14T08:36:03;1.58;;;0.50;;
13051;SDS011;6592;47.484;9.726;2023-03-14T08:38:32;2.05;;;0.70;;
13051;SDS011;6592;47.484;9.726;2023-03-14T08:41:06;1.27;;;0.38;;
13051;SDS011;6592;47.484;9.726;2023-03-14T08:43:36;1.75;;;0.45;;
13051;SDS011;6592;47.484;9.726;2023-03-14T08:46:07;2.70;;;0.30;;
13051;SDS011;6592;47.484;9.726;2023-03-14T08:48:36;0.65;;;0.20;;
13051;SDS011;6592;47.484;9.726;2023-03-14T08:53:38;0.88;;;0.30;;
13051;SDS011;6592;47.484;9.726;2023-03-14T08:56:07;0.57;;;0.30;;
13051;SDS011;6592;47.484;9.726;2023-03-14T08:58:36;2.17;;;0.28;;
13051;SDS011;6592;47.484;9.726;2023-03-14T09:01:07;0.40;;;0.15;;
13051;SDS011;6592;47.484;9.726;2023-03-14T09:03:38;2.47;;;0.20;;
13051;SDS011;6592;47.484;9.726;2023-03-14T09:06:07;2.40;;;0.30;;
13051;SDS011;6592;47.484;9.726;2023-03-14T09:08:37;1.13;;;0.40;;
13051;SDS011;6592;47.484;9.726;2023-03-14T09:11:06;1.08;;;0.40;;
13051;SDS011;6592;47.484;9.726;2023-03-14T09:13:36;0.98;;;0.25;;
13051;SDS011;6592;47.484;9.726;2023-03-14T09:16:10;0.52;;;0.20;;
13051;SDS011;6592;47.484;9.726;2023-03-14T09:18:40;0.63;;;0.20;;
13051;SDS011;6592;47.484;9.726;2023-03-14T09:21:09;1.10;;;0.30;;
13051;SDS011;6592;47.484;9.726;2023-03-14T09:23:40;0.50;;;0.20;;
13051;SDS011;6592;47.484;9.726;2023-03-14T09:26:11;0.85;;;0.20;;
13051;SDS011;6592;47.484;9.726;2023-03-14T09:28:40;0.43;;;0.20;;
13051;SDS011;6592;47.484;9.726;2023-03-14T09:31:14;0.60;;;0.10;;
13051;SDS011;6592;47.484;9.726;2023-03-14T09:33:46;1.20;;;0.13;;
13051;SDS011;6592;47.484;9.726;2023-03-14T09:36:17;1.20;;;0.30;;
13051;SDS011;6592;47.484;9.726;2023-03-14T09:38:47;0.10;;;0.05;;
13051;SDS011;6592;47.484;9.726;2023-03-14T09:41:18;0.20;;;0.10;;
13051;SDS011;6592;47.484;9.726;2023-03-14T09:43:53;0.50;;;0.20;;
13051;SDS011;6592;47.484;9.726;2023-03-14T09:46:36;0.68;;;0.15;;
13051;SDS011;6592;47.484;9.726;2023-03-14T09:49:09;0.32;;;0.10;;
13051;SDS011;6592;47.484;9.726;2023-03-14T09:51:41;2.55;;;0.20;;
13051;SDS011;6592;47.484;9.726;2023-03-14T09:54:17;2.00;;;0.20;;
13051;SDS011;6592;47.484;9.726;2023-03-14T09:56:54;1.30;;;0.38;;
13051;SDS011;6592;47.484;9.726;2023-03-14T09:59:23;0.70;;;0.32;;
13051;SDS011;6592;47.484;9.726;2023-03-14T10:01:55;1.67;;;0.60;;
13051;SDS011;6592;47.484;9.726;2023-03-14T10:04:26;2.17;;;0.45;;
13051;SDS011;6592;47.484;9.726;2023-03-14T10:06:56;0.80;;;0.30;;
13051;SDS011;6592;47.484;9.726;2023-03-14T10:09:25;1.20;;;0.40;;
13051;SDS011;6592;47.484;9.726;2023-03-14T10:11:54;2.03;;;0.43;;
13051;SDS011;6592;47.484;9.726;2023-03-14T10:14:37;1.15;;;0.25;;
13051;SDS011;6592;47.484;9.726;2023-03-14T10:17:17;2.40;;;0.52;;
13051;SDS011;6592;47.484;9.726;2023-03-14T10:19:52;0.90;;;0.32;;
13051;SDS011;6592;47.484;9.726;2023-03-14T10:22:23;1.48;;;0.60;;
13051;SDS011;6592;47.484;9.726;2023-03-14T10:24:56;1.40;;;0.20;;
13051;SDS011;6592;47.484;9.726;2023-03-14T10:27:28;0.75;;;0.20;;
13051;SDS011;6592;47.484;9.726;2023-03-14T10:30:00;0.57;;;0.20;;
13051;SDS011;6592;47.484;9.726;2023-03-14T10:32:34;0.98;;;0.30;;
13051;SDS011;6592;47.484;9.726;2023-03-14T10:35:07;0.90;;;0.40;;
13051;SDS011;6592;47.484;9.726;2023-03-14T10:37:51;0.88;;;0.20;;
13051;SDS011;6592;47.484;9.726;2023-03-14T10:40:23;2.17;;;0.37;;
13051;SDS011;6592;47.484;9.726;2023-03-14T10:42:58;0.50;;;0.20;;
13051;SDS011;6592;47.484;9.726;2023-03-14T10:45:31;0.40;;;0.10;;
13051;SDS011;6592;47.484;9.726;2023-03-14T10:48:16;0.40;;;0.10;;
13051;SDS011;6592;47.484;9.726;2023-03-14T10:50:48;0.80;;;0.28;;
13051;SDS011;6592;47.484;9.726;2023-03-14T10:53:22;1.38;;;0.20;;
13051;SDS011;6592;47.484;9.726;2023-03-14T10:55:55;0.60;;;0.20;;
13051;SDS011;6592;47.484;9.726;2023-03-14T10:58:26;0.65;;;0.17;;
13051;SDS011;6592;47.484;9.726;2023-03-14T11:01:00;0.38;;;0.20;;
13051;SDS011;6592;47.484;9.726;2023-03-14T11:03:38;3.88;;;0.30;;
13051;SDS011;6592;47.484;9.726;2023-03-14T11:06:11;0.90;;;0.40;;
13051;SDS011;6592;47.484;9.726;2023-03-14T11:08:46;1.83;;;0.32;;
13051;SDS011;6592;47.484;9.726;2023-03-14T11:11:22;0.85;;;0.30;;
13051;SDS011;6592;47.484;9.726;2023-03-14T11:13:57;0.43;;;0.15;;
13051;SDS011;6592;47.484;9.726;2023-03-14T11:16:34;1.10;;;0.30;;
13051;SDS011;6592;47.484;9.726;2023-03-14T11:19:19;0.63;;;0.20;;
13051;SDS011;6592;47.484;9.726;2023-03-14T11:21:57;2.47;;;0.40;;
13051;SDS011;6592;47.484;9.726;2023-03-14T11:27:41;2.55;;;0.40;;
13051;SDS011;6592;47.484;9.726;2023-03-14T11:30:17;0.77;;;0.22;;
13051;SDS011;6592;47.484;9.726;2023-03-14T11:32:50;0.75;;;0.20;;
13051;SDS011;6592;47.484;9.726;2023-03-14T11:35:30;1.08;;;0.20;;
13051;SDS011;6592;47.484;9.726;2023-03-14T11:38:18;0.40;;;0.10;;
13051;SDS011;6592;47.484;9.726;2023-03-14T11:40:56;0.22;;;0.10;;
13051;SDS011;6592;47.484;9.726;2023-03-14T11:43:28;0.32;;;0.10;;
13051;SDS011;6592;47.484;9.726;2023-03-14T11:46:01;0.65;;;0.13;;
13051;SDS011;6592;47.484;9.726;2023-03-14T11:48:38;2.15;;;0.20;;
13051;SDS011;6592;47.484;9.726;2023-03-14T11:51:13;1.10;;;0.20;;
13051;SDS011;6592;47.484;9.726;2023-03-14T11:53:50;0.47;;;0.10;;
13051;SDS011;6592;47.484;9.726;2023-03-14T11:56:31;0.50;;;0.17;;
13051;SDS011;6592;47.484;9.726;2023-03-14T11:59:05;0.63;;;0.20;;
13051;SDS011;6592;47.484;9.726;2023-03-14T12:01:43;0.88;;;0.30;;
13051;SDS011;6592;47.484;9.726;2023-03-14T12:04:30;0.98;;;0.40;;
13051;SDS011;6592;47.484;9.726;2023-03-14T12:07:14;1.38;;;0.20;;
13051;SDS011;6592;47.484;9.726;2023-03-14T12:09:47;0.38;;;0.00;;
13051;SDS011;6592;47.484;9.726;2023-03-14T12:12:18;0.20;;;0.00;;
13051;SDS011;6592;47.484;9.726;2023-03-14T12:14:54;0.35;;;0.08;;
13051;SDS011;6592;47.484;9.726;2023-03-14T12:17:25;0.55;;;0.20;;
13051;SDS011;6592;47.484;9.726;2023-03-14T12:20:03;1.35;;;0.30;;
13051;SDS011;6592;47.484;9.726;2023-03-14T12:22:42;0.20;;;0.10;;
13051;SDS011;6592;47.484;9.726;2023-03-14T12:25:16;1.00;;;0.30;;
13051;SDS011;6592;47.484;9.726;2023-03-14T12:27:49;0.73;;;0.10;;
13051;SDS011;6592;47.484;9.726;2023-03-14T12:30:37;0.40;;;0.10;;
13051;SDS011;6592;47.484;9.726;2023-03-14T12:33:10;0.20;;;0.10;;
13051;SDS011;6592;47.484;9.726;2023-03-14T12:36:04;1.45;;;0.10;;
13051;SDS011;6592;47.484;9.726;2023-03-14T12:41:49;0.40;;;0.20;;
13051;SDS011;6592;47.484;9.726;2023-03-14T12:50:19;0.63;;;0.10;;
13051;SDS011;6592;47.484;9.726;2023-03-14T12:56:19;0.73;;;0.30;;
13051;SDS011;6592;47.484;9.726;2023-03-14T12:59:01;1.70;;;0.43;;
13051;SDS011;6592;47.484;9.726;2023-03-14T13:01:45;0.17;;;0.10;;
13051;SDS011;6592;47.484;9.726;2023-03-14T13:04:16;0.65;;;0.20;;
13051;SDS011;6592;47.484;9.726;2023-03-14T13:06:58;0.20;;;0.10;;
13051;SDS011;6592;47.484;9.726;2023-03-14T13:12:34;0.17;;;0.10;;
13051;SDS011;6592;47.484;9.726;2023-03-14T13:17:59;0.20;;;0.10;;
13051;SDS011;6592;47.484;9.726;2023-03-14T13:20:31;1.27;;;0.10;;
13051;SDS011;6592;47.484;9.726;2023-03-14T13:23:03;0.40;;;0.20;;
13051;SDS011;6592;47.484;9.726;2023-03-14T13:25:34;0.52;;;0.13;;
13051;SDS011;6592;47.484;9.726;2023-03-14T13:28:05;0.63;;;0.20;;
13051;SDS011;6592;47.484;9.726;2023-03-14T13:30:39;0.30;;;0.10;;
13051;SDS011;6592;47.484;9.726;2023-03-14T13:33:13;1.17;;;0.13;;
13051;SDS011;6592;47.484;9.726;2023-03-14T13:35:45;0.45;;;0.10;;
13051;SDS011;6592;47.484;9.726;2023-03-14T13:38:19;0.47;;;0.20;;
13051;SDS011;6592;47.484;9.726;2023-03-14T13:40:50;0.22;;;0.10;;
13051;SDS011;6592;47.484;9.726;2023-03-14T13:43:27;0.00;;;0.00;;
13051;SDS011;6592;47.484;9.726;2023-03-14T13:46:01;1.88;;;0.50;;
13051;SDS011;6592;47.484;9.726;2023-03-14T13:48:34;1.02;;;0.20;;
13051;SDS011;6592;47.484;9.726;2023-03-14T13:51:09;0.20;;;0.10;;
13051;SDS011;6592;47.484;9.726;2023-03-14T13:53:44;0.93;;;0.30;;
13051;SDS011;6592;47.484;9.726;2023-03-14T13:56:14;1.77;;;0.68;;
13051;SDS011;6592;47.484;9.726;2023-03-14T13:58:45;1.15;;;0.30;;
13051;SDS011;6592;47.484;9.726;2023-03-14T14:01:15;1.10;;;0.20;;
13051;SDS011;6592;47.484;9.726;2023-03-14T14:03:47;0.90;;;0.20;;
13051;SDS011;6592;47.484;9.726;2023-03-14T14:06:28;1.92;;;0.35;;
13051;SDS011;6592;47.484;9.726;2023-03-14T14:08:59;0.47;;;0.20;;
13051;SDS011;6592;47.484;9.726;2023-03-14T14:11:38;0.13;;;0.10;;
13051;SDS011;6592;47.484;9.726;2023-03-14T14:14:31;0.20;;;0.10;;
13051;SDS011;6592;47.484;9.726;2023-03-14T14:17:03;0.50;;;0.20;;
13051;SDS011;6592;47.484;9.726;2023-03-14T14:19:36;0.30;;;0.10;;
13051;SDS011;6592;47.484;9.726;2023-03-14T14:22:07;0.60;;;0.20;;
13051;SDS011;6592;47.484;9.726;2023-03-14T14:24:38;0.30;;;0.10;;
13051;SDS011;6592;47.484;9.726;2023-03-14T14:27:10;1.75;;;0.10;;
13051;SDS011;6592;47.484;9.726;2023-03-14T14:29:55;1.50;;;0.60;;
13051;SDS011;6592;47.484;9.726;2023-03-14T14:34:56;1.20;;;0.65;;
13051;SDS011;6592;47.484;9.726;2023-03-14T14:37:27;0.65;;;0.30;;
13051;SDS011;6592;47.484;9.726;2023-03-14T14:39:57;0.65;;;0.30;;
13051;SDS011;6592;47.484;9.726;2023-03-14T14:42:28;1.38;;;0.30;;
13051;SDS011;6592;47.484;9.726;2023-03-14T14:45:01;0.88;;;0.32;;
13051;SDS011;6592;47.484;9.726;2023-03-14T14:47:31;1.50;;;0.20;;
13051;SDS011;6592;47.484;9.726;2023-03-14T14:50:03;1.40;;;0.38;;
13051;SDS011;6592;47.484;9.726;2023-03-14T14:52:33;1.92;;;0.40;;
13051;SDS011;6592;47.484;9.726;2023-03-14T14:55:11;2.28;;;0.38;;
13051;SDS011;6592;47.484;9.726;2023-03-14T14:57:41;2.20;;;0.50;;
13051;SDS011;6592;47.484;9.726;2023-03-14T15:00:22;1.13;;;0.32;;
13051;SDS011;6592;47.484;9.726;2023-03-14T15:02:52;2.13;;;0.47;;
13051;SDS011;6592;47.484;9.726;2023-03-14T15:05:23;1.33;;;0.45;;
13051;SDS011;6592;47.484;9.726;2023-03-14T15:07:53;3.30;;;0.30;;
13051;SDS011;6592;47.484;9.726;2023-03-14T15:10:23;0.82;;;0.25;;
13051;SDS011;6592;47.484;9.726;2023-03-14T15:12:53;1.88;;;0.30;;
13051;SDS011;6592;47.484;9.726;2023-03-14T15:15:24;1.42;;;0.40;;
13051;SDS011;6592;47.484;9.726;2023-03-14T15:17:52;4.15;;;0.55;;
13051;SDS011;6592;47.484;9.726;2023-03-14T15:20:21;2.60;;;0.50;;
13051;SDS011;6592;47.484;9.726;2023-03-14T15:22:51;1.02;;;0.40;;
13051;SDS011;6592;47.484;9.726;2023-03-14T15:25:20;1.83;;;0.47;;
13051;SDS011;6592;47.484;9.726;2023-03-14T15:28:16;1.90;;;0.70;;
13051;SDS011;6592;47.484;9.726;2023-03-14T15:30:48;4.53;;;0.80;;
13051;SDS011;6592;47.484;9.726;2023-03-14T15:33:19;1.88;;;0.52;;
13051;SDS011;6592;47.484;9.726;2023-03-14T15:35:48;3.97;;;0.40;;
13051;SDS011;6592;47.484;9.726;2023-03-14T15:38:17;2.38;;;0.50;;
13051;SDS011;6592;47.484;9.726;2023-03-14T15:40:49;2.83;;;0.60;;
13051;SDS011;6592;47.484;9.726;2023-03-14T15:43:19;2.25;;;0.30;;
13051;SDS011;6592;47.484;9.726;2023-03-14T15:45:53;0.77;;;0.20;;
13051;SDS011;6592;47.484;9.726;2023-03-14T15:50:52;2.03;;;0.40;;
13051;SDS011;6592;47.484;9.726;2023-03-14T15:53:20;1.92;;;0.55;;
13051;SDS011;6592;47.484;9.726;2023-03-14T15:55:49;2.15;;;0.50;;
13051;SDS011;6592;47.484;9.726;2023-03-14T15:58:21;2.88;;;0.47;;